sensor_id;sensor_type;location;lat;lon;timestamp;temperature;humidity
70184;DHT22;57554;51.546;6.776;2023-07-09T00:00:48;26.00;44.60
70184;DHT22;57554;51.546;6.776;2023-07-09T00:03:15;25.90;44.90
70184;DHT22;57554;51.546;6.776;2023-07-09T00:05:46;25.90;44.90
70184;DHT22;57554;51.546;6.776;2023-07-09T00:08:27;25.90;45.00
70184;DHT22;57554;51.546;6.776;2023-07-09T00:10:54;25.90;45.00
70184;DHT22;57554;51.546;6.776;2023-07-09T00:13:21;25.90;45.00
70184;DHT22;57554;51.546;6.776;2023-07-09T00:15:47;25.80;45.10
70184;DHT22;57554;51.546;6.776;2023-07-09T00:18:13;25.80;45.20
70184;DHT22;57554;51.546;6.776;2023-07-09T00:20:39;25.80;45.00
70184;DHT22;57554;51.546;6.776;2023-07-09T00:23:06;25.80;45.20
70184;DHT22;57554;51.546;6.776;2023-07-09T00:25:32;25.70;45.40
70184;DHT22;57554;51.546;6.776;2023-07-09T00:28:01;25.70;45.40
70184;DHT22;57554;51.546;6.776;2023-07-09T00:30:27;25.70;45.50
70184;DHT22;57554;51.546;6.776;2023-07-09T00:32:52;25.60;45.50
70184;DHT22;57554;51.546;6.776;2023-07-09T00:35:20;25.60;45.50
70184;DHT22;57554;51.546;6.776;2023-07-09T00:37:46;25.60;45.50
70184;DHT22;57554;51.546;6.776;2023-07-09T00:40:21;25.60;45.50
70184;DHT22;57554;51.546;6.776;2023-07-09T00:42:50;25.60;45.70
70184;DHT22;57554;51.546;6.776;2023-07-09T00:45:25;25.50;45.70
70184;DHT22;57554;51.546;6.776;2023-07-09T00:48:03;25.50;45.90
70184;DHT22;57554;51.546;6.776;2023-07-09T00:50:37;25.50;46.00
70184;DHT22;57554;51.546;6.776;2023-07-09T00:53:17;25.40;46.00
70184;DHT22;57554;51.546;6.776;2023-07-09T00:55:51;25.40;46.00
70184;DHT22;57554;51.546;6.776;2023-07-09T00:58:20;25.40;46.00
70184;DHT22;57554;51.546;6.776;2023-07-09T01:00:50;25.40;46.10
70184;DHT22;57554;51.546;6.776;2023-07-09T01:03:37;25.40;46.20
70184;DHT22;57554;51.546;6.776;2023-07-09T01:06:06;25.40;46.20
70184;DHT22;57554;51.546;6.776;2023-07-09T01:08:33;25.30;46.30
70184;DHT22;57554;51.546;6.776;2023-07-09T01:10:59;25.30;46.40
70184;DHT22;57554;51.546;6.776;2023-07-09T01:13:27;25.30;46.70
70184;DHT22;57554;51.546;6.776;2023-07-09T01:15:53;25.30;46.80
70184;DHT22;57554;51.546;6.776;2023-07-09T01:18:19;25.20;46.90
70184;DHT22;57554;51.546;6.776;2023-07-09T01:20:46;25.20;47.00
70184;DHT22;57554;51.546;6.776;2023-07-09T01:23:12;25.20;47.10
70184;DHT22;57554;51.546;6.776;2023-07-09T01:25:43;25.20;47.30
70184;DHT22;57554;51.546;6.776;2023-07-09T01:28:10;25.10;47.50
70184;DHT22;57554;51.546;6.776;2023-07-09T01:30:38;25.10;47.60
70184;DHT22;57554;51.546;6.776;2023-07-09T01:33:04;25.10;47.60
70184;DHT22;57554;51.546;6.776;2023-07-09T01:35:34;25.00;47.50
70184;DHT22;57554;51.546;6.776;2023-07-09T01:38:00;25.00;47.60
70184;DHT22;57554;51.546;6.776;2023-07-09T01:40:28;25.00;48.20
70184;DHT22;57554;51.546;6.776;2023-07-09T01:42:55;24.90;48.80
70184;DHT22;57554;51.546;6.776;2023-07-09T01:45:21;24.80;48.80
70184;DHT22;57554;51.546;6.776;2023-07-09T01:47:48;24.70;48.90
70184;DHT22;57554;51.546;6.776;2023-07-09T01:50:14;24.70;49.20
70184;DHT22;57554;51.546;6.776;2023-07-09T01:52:43;24.60;49.40
70184;DHT22;57554;51.546;6.776;2023-07-09T01:55:13;24.60;49.20
70184;DHT22;57554;51.546;6.776;2023-07-09T01:57:43;24.50;49.10
70184;DHT22;57554;51.546;6.776;2023-07-09T02:00:10;24.50;49.00
70184;DHT22;57554;51.546;6.776;2023-07-09T02:02:39;24.50;49.00
70184;DHT22;57554;51.546;6.776;2023-07-09T02:05:08;24.50;48.80
70184;DHT22;57554;51.546;6.776;2023-07-09T02:07:34;24.60;48.70
70184;DHT22;57554;51.546;6.776;2023-07-09T02:10:00;24.60;48.70
70184;DHT22;57554;51.546;6.776;2023-07-09T02:12:26;24.60;48.80
70184;DHT22;57554;51.546;6.776;2023-07-09T02:14:51;24.60;48.80
70184;DHT22;57554;51.546;6.776;2023-07-09T02:17:17;24.60;48.60
70184;DHT22;57554;51.546;6.776;2023-07-09T02:19:43;24.60;48.70
70184;DHT22;57554;51.546;6.776;2023-07-09T02:22:10;24.60;48.70
70184;DHT22;57554;51.546;6.776;2023-07-09T02:24:36;24.60;48.80
70184;DHT22;57554;51.546;6.776;2023-07-09T02:27:04;24.50;48.80
70184;DHT22;57554;51.546;6.776;2023-07-09T02:29:30;24.50;49.00
70184;DHT22;57554;51.546;6.776;2023-07-09T02:31:58;24.50;48.90
70184;DHT22;57554;51.546;6.776;2023-07-09T02:34:28;24.50;48.90
70184;DHT22;57554;51.546;6.776;2023-07-09T02:36:56;24.50;49.10
70184;DHT22;57554;51.546;6.776;2023-07-09T02:39:22;24.50;49.10
70184;DHT22;57554;51.546;6.776;2023-07-09T02:41:48;24.50;49.30
70184;DHT22;57554;51.546;6.776;2023-07-09T02:44:15;24.40;49.20
70184;DHT22;57554;51.546;6.776;2023-07-09T02:46:41;24.40;49.40
70184;DHT22;57554;51.546;6.776;2023-07-09T02:49:09;24.40;49.30
70184;DHT22;57554;51.546;6.776;2023-07-09T02:51:35;24.40;49.30
70184;DHT22;57554;51.546;6.776;2023-07-09T02:54:02;24.30;49.30
70184;DHT22;57554;51.546;6.776;2023-07-09T02:56:28;24.30;49.40
70184;DHT22;57554;51.546;6.776;2023-07-09T02:58:54;24.30;49.40
70184;DHT22;57554;51.546;6.776;2023-07-09T03:01:20;24.30;49.60
70184;DHT22;57554;51.546;6.776;2023-07-09T03:03:53;24.20;49.80
70184;DHT22;57554;51.546;6.776;2023-07-09T03:06:20;24.20;50.00
70184;DHT22;57554;51.546;6.776;2023-07-09T03:08:46;24.20;50.10
70184;DHT22;57554;51.546;6.776;2023-07-09T03:11:13;24.10;50.10
70184;DHT22;57554;51.546;6.776;2023-07-09T03:13:39;24.10;50.30
70184;DHT22;57554;51.546;6.776;2023-07-09T03:16:05;24.10;50.40
70184;DHT22;57554;51.546;6.776;2023-07-09T03:18:31;24.00;50.50
70184;DHT22;57554;51.546;6.776;2023-07-09T03:20:56;24.00;50.50
70184;DHT22;57554;51.546;6.776;2023-07-09T03:23:22;24.00;50.60
70184;DHT22;57554;51.546;6.776;2023-07-09T03:25:48;24.00;50.40
70184;DHT22;57554;51.546;6.776;2023-07-09T03:28:13;23.90;50.30
70184;DHT22;57554;51.546;6.776;2023-07-09T03:30:41;23.90;50.90
70184;DHT22;57554;51.546;6.776;2023-07-09T03:33:07;23.90;51.10
70184;DHT22;57554;51.546;6.776;2023-07-09T03:35:32;23.80;51.30
70184;DHT22;57554;51.546;6.776;2023-07-09T03:38:00;23.80;51.10
70184;DHT22;57554;51.546;6.776;2023-07-09T03:40:26;23.80;51.20
70184;DHT22;57554;51.546;6.776;2023-07-09T03:42:51;23.70;51.40
70184;DHT22;57554;51.546;6.776;2023-07-09T03:45:17;23.70;51.50
70184;DHT22;57554;51.546;6.776;2023-07-09T03:47:42;23.70;51.60
70184;DHT22;57554;51.546;6.776;2023-07-09T03:50:09;23.70;51.50
70184;DHT22;57554;51.546;6.776;2023-07-09T03:52:35;23.70;51.60
70184;DHT22;57554;51.546;6.776;2023-07-09T03:55:01;23.70;51.70
70184;DHT22;57554;51.546;6.776;2023-07-09T03:57:33;23.70;51.90
70184;DHT22;57554;51.546;6.776;2023-07-09T03:59:58;23.70;52.00
70184;DHT22;57554;51.546;6.776;2023-07-09T04:02:24;23.70;51.80
70184;DHT22;57554;51.546;6.776;2023-07-09T04:04:50;23.70;52.00
70184;DHT22;57554;51.546;6.776;2023-07-09T04:07:15;23.70;52.10
70184;DHT22;57554;51.546;6.776;2023-07-09T04:09:42;23.70;52.10
70184;DHT22;57554;51.546;6.776;2023-07-09T04:12:09;23.70;52.10
70184;DHT22;57554;51.546;6.776;2023-07-09T04:14:35;23.70;52.00
70184;DHT22;57554;51.546;6.776;2023-07-09T04:17:00;23.70;51.90
70184;DHT22;57554;51.546;6.776;2023-07-09T04:19:26;23.80;51.90
70184;DHT22;57554;51.546;6.776;2023-07-09T04:21:52;23.80;52.00
70184;DHT22;57554;51.546;6.776;2023-07-09T04:24:18;23.80;51.90
70184;DHT22;57554;51.546;6.776;2023-07-09T04:26:44;23.80;52.10
70184;DHT22;57554;51.546;6.776;2023-07-09T04:29:10;23.80;52.00
70184;DHT22;57554;51.546;6.776;2023-07-09T04:31:36;23.80;52.10
70184;DHT22;57554;51.546;6.776;2023-07-09T04:34:03;23.80;52.20
70184;DHT22;57554;51.546;6.776;2023-07-09T04:36:28;23.90;52.30
70184;DHT22;57554;51.546;6.776;2023-07-09T04:38:54;23.90;52.50
70184;DHT22;57554;51.546;6.776;2023-07-09T04:41:20;23.90;52.50
70184;DHT22;57554;51.546;6.776;2023-07-09T04:43:45;23.90;52.40
70184;DHT22;57554;51.546;6.776;2023-07-09T04:46:11;23.90;52.50
70184;DHT22;57554;51.546;6.776;2023-07-09T04:48:36;24.00;52.60
70184;DHT22;57554;51.546;6.776;2023-07-09T04:51:02;24.00;52.80
70184;DHT22;57554;51.546;6.776;2023-07-09T04:53:27;24.00;53.10
70184;DHT22;57554;51.546;6.776;2023-07-09T04:55:53;24.00;53.00
70184;DHT22;57554;51.546;6.776;2023-07-09T04:58:19;24.10;52.90
70184;DHT22;57554;51.546;6.776;2023-07-09T05:00:45;24.10;53.10
70184;DHT22;57554;51.546;6.776;2023-07-09T05:03:11;24.20;53.30
70184;DHT22;57554;51.546;6.776;2023-07-09T05:05:44;24.30;53.30
70184;DHT22;57554;51.546;6.776;2023-07-09T05:08:11;24.40;53.30
70184;DHT22;57554;51.546;6.776;2023-07-09T05:10:44;24.60;53.30
70184;DHT22;57554;51.546;6.776;2023-07-09T05:13:10;24.70;53.20
70184;DHT22;57554;51.546;6.776;2023-07-09T05:15:40;24.80;52.70
70184;DHT22;57554;51.546;6.776;2023-07-09T05:18:07;25.00;52.70
70184;DHT22;57554;51.546;6.776;2023-07-09T05:20:34;25.10;52.80
70184;DHT22;57554;51.546;6.776;2023-07-09T05:22:59;25.30;52.50
70184;DHT22;57554;51.546;6.776;2023-07-09T05:25:25;25.40;51.80
70184;DHT22;57554;51.546;6.776;2023-07-09T05:27:50;25.50;51.60
70184;DHT22;57554;51.546;6.776;2023-07-09T05:30:17;25.70;51.10
70184;DHT22;57554;51.546;6.776;2023-07-09T05:32:43;25.80;50.90
70184;DHT22;57554;51.546;6.776;2023-07-09T05:35:09;25.90;50.60
70184;DHT22;57554;51.546;6.776;2023-07-09T05:37:35;26.00;50.50
70184;DHT22;57554;51.546;6.776;2023-07-09T05:40:01;26.10;50.50
70184;DHT22;57554;51.546;6.776;2023-07-09T05:42:26;26.30;50.50
70184;DHT22;57554;51.546;6.776;2023-07-09T05:44:52;26.40;50.40
70184;DHT22;57554;51.546;6.776;2023-07-09T05:47:18;26.50;49.60
70184;DHT22;57554;51.546;6.776;2023-07-09T05:49:44;26.70;49.60
70184;DHT22;57554;51.546;6.776;2023-07-09T05:52:10;26.80;49.50
70184;DHT22;57554;51.546;6.776;2023-07-09T05:54:36;26.90;49.20
70184;DHT22;57554;51.546;6.776;2023-07-09T05:57:01;27.10;49.00
70184;DHT22;57554;51.546;6.776;2023-07-09T05:59:27;27.20;49.20
70184;DHT22;57554;51.546;6.776;2023-07-09T06:01:53;27.40;48.90
70184;DHT22;57554;51.546;6.776;2023-07-09T06:04:18;27.50;49.00
70184;DHT22;57554;51.546;6.776;2023-07-09T06:06:44;27.70;48.90
70184;DHT22;57554;51.546;6.776;2023-07-09T06:09:10;27.80;49.00
70184;DHT22;57554;51.546;6.776;2023-07-09T06:11:36;28.00;48.80
70184;DHT22;57554;51.546;6.776;2023-07-09T06:14:01;28.10;48.70
70184;DHT22;57554;51.546;6.776;2023-07-09T06:16:27;28.30;48.80
70184;DHT22;57554;51.546;6.776;2023-07-09T06:18:53;28.40;48.30
70184;DHT22;57554;51.546;6.776;2023-07-09T06:21:19;28.60;48.00
70184;DHT22;57554;51.546;6.776;2023-07-09T06:23:46;28.70;47.80
70184;DHT22;57554;51.546;6.776;2023-07-09T06:26:12;28.90;48.20
70184;DHT22;57554;51.546;6.776;2023-07-09T06:28:37;29.10;47.00
70184;DHT22;57554;51.546;6.776;2023-07-09T06:31:03;29.20;46.60
70184;DHT22;57554;51.546;6.776;2023-07-09T06:33:29;29.30;46.00
70184;DHT22;57554;51.546;6.776;2023-07-09T06:35:58;29.40;45.70
70184;DHT22;57554;51.546;6.776;2023-07-09T06:38:24;29.50;45.20
70184;DHT22;57554;51.546;6.776;2023-07-09T06:40:50;29.70;45.00
70184;DHT22;57554;51.546;6.776;2023-07-09T06:43:16;29.80;45.10
70184;DHT22;57554;51.546;6.776;2023-07-09T06:45:55;29.90;44.70
70184;DHT22;57554;51.546;6.776;2023-07-09T06:48:23;30.00;44.40
70184;DHT22;57554;51.546;6.776;2023-07-09T06:50:49;30.20;44.40
70184;DHT22;57554;51.546;6.776;2023-07-09T06:53:15;30.30;43.70
70184;DHT22;57554;51.546;6.776;2023-07-09T06:55:41;30.40;43.80
70184;DHT22;57554;51.546;6.776;2023-07-09T06:58:07;30.50;44.00
70184;DHT22;57554;51.546;6.776;2023-07-09T07:00:35;30.70;43.40
70184;DHT22;57554;51.546;6.776;2023-07-09T07:03:01;30.80;43.70
70184;DHT22;57554;51.546;6.776;2023-07-09T07:05:26;31.00;43.20
70184;DHT22;57554;51.546;6.776;2023-07-09T07:07:52;31.20;41.70
70184;DHT22;57554;51.546;6.776;2023-07-09T07:10:19;31.40;41.50
70184;DHT22;57554;51.546;6.776;2023-07-09T07:12:46;31.60;41.10
70184;DHT22;57554;51.546;6.776;2023-07-09T07:15:14;31.80;40.90
70184;DHT22;57554;51.546;6.776;2023-07-09T07:17:41;32.00;40.80
70184;DHT22;57554;51.546;6.776;2023-07-09T07:20:08;32.10;40.70
70184;DHT22;57554;51.546;6.776;2023-07-09T07:22:34;32.30;40.90
70184;DHT22;57554;51.546;6.776;2023-07-09T07:24:59;32.40;40.60
70184;DHT22;57554;51.546;6.776;2023-07-09T07:27:25;32.50;40.70
70184;DHT22;57554;51.546;6.776;2023-07-09T07:29:50;32.70;41.30
70184;DHT22;57554;51.546;6.776;2023-07-09T07:32:16;32.90;40.00
70184;DHT22;57554;51.546;6.776;2023-07-09T07:34:41;33.10;39.10
70184;DHT22;57554;51.546;6.776;2023-07-09T07:37:07;33.30;39.10
70184;DHT22;57554;51.546;6.776;2023-07-09T07:39:33;33.50;39.10
70184;DHT22;57554;51.546;6.776;2023-07-09T07:41:58;33.60;37.90
70184;DHT22;57554;51.546;6.776;2023-07-09T07:44:24;33.70;37.80
70184;DHT22;57554;51.546;6.776;2023-07-09T07:46:49;33.80;37.90
70184;DHT22;57554;51.546;6.776;2023-07-09T07:49:15;34.00;38.10
70184;DHT22;57554;51.546;6.776;2023-07-09T07:51:41;34.20;37.40
70184;DHT22;57554;51.546;6.776;2023-07-09T07:54:06;34.40;37.50
70184;DHT22;57554;51.546;6.776;2023-07-09T07:56:35;34.60;37.50
70184;DHT22;57554;51.546;6.776;2023-07-09T07:59:01;34.70;37.40
70184;DHT22;57554;51.546;6.776;2023-07-09T08:01:27;34.90;37.20
70184;DHT22;57554;51.546;6.776;2023-07-09T08:03:53;35.10;37.40
70184;DHT22;57554;51.546;6.776;2023-07-09T08:06:19;35.20;36.80
70184;DHT22;57554;51.546;6.776;2023-07-09T08:08:45;35.30;36.30
70184;DHT22;57554;51.546;6.776;2023-07-09T08:11:10;35.50;35.60
70184;DHT22;57554;51.546;6.776;2023-07-09T08:13:37;35.70;35.60
70184;DHT22;57554;51.546;6.776;2023-07-09T08:16:04;35.90;35.90
70184;DHT22;57554;51.546;6.776;2023-07-09T08:18:30;36.10;35.20
70184;DHT22;57554;51.546;6.776;2023-07-09T08:20:56;36.30;34.90
70184;DHT22;57554;51.546;6.776;2023-07-09T08:23:21;36.50;34.80
70184;DHT22;57554;51.546;6.776;2023-07-09T08:25:54;36.70;33.50
70184;DHT22;57554;51.546;6.776;2023-07-09T08:28:20;36.90;34.30
70184;DHT22;57554;51.546;6.776;2023-07-09T08:30:45;37.10;33.80
70184;DHT22;57554;51.546;6.776;2023-07-09T08:33:11;37.30;34.10
70184;DHT22;57554;51.546;6.776;2023-07-09T08:35:36;37.60;33.30
70184;DHT22;57554;51.546;6.776;2023-07-09T08:38:02;37.80;33.30
70184;DHT22;57554;51.546;6.776;2023-07-09T08:40:27;38.00;33.10
70184;DHT22;57554;51.546;6.776;2023-07-09T08:43:01;38.20;33.10
70184;DHT22;57554;51.546;6.776;2023-07-09T08:45:49;38.50;32.90
70184;DHT22;57554;51.546;6.776;2023-07-09T08:48:22;38.70;31.80
70184;DHT22;57554;51.546;6.776;2023-07-09T08:50:55;38.80;31.80
70184;DHT22;57554;51.546;6.776;2023-07-09T08:53:35;38.80;31.60
70184;DHT22;57554;51.546;6.776;2023-07-09T08:56:02;38.70;31.70
70184;DHT22;57554;51.546;6.776;2023-07-09T08:58:30;38.80;31.80
70184;DHT22;57554;51.546;6.776;2023-07-09T09:01:01;38.90;32.60
70184;DHT22;57554;51.546;6.776;2023-07-09T09:06:32;39.10;31.00
70184;DHT22;57554;51.546;6.776;2023-07-09T09:12:14;39.20;29.70
70184;DHT22;57554;51.546;6.776;2023-07-09T09:14:48;39.10;30.60
70184;DHT22;57554;51.546;6.776;2023-07-09T09:17:19;39.00;31.30
70184;DHT22;57554;51.546;6.776;2023-07-09T09:19:53;39.10;31.40
70184;DHT22;57554;51.546;6.776;2023-07-09T09:22:26;39.20;29.90
70184;DHT22;57554;51.546;6.776;2023-07-09T09:25:03;39.20;30.10
70184;DHT22;57554;51.546;6.776;2023-07-09T09:27:30;39.30;30.40
70184;DHT22;57554;51.546;6.776;2023-07-09T09:29:56;39.30;30.10
70184;DHT22;57554;51.546;6.776;2023-07-09T09:32:30;39.30;30.10
70184;DHT22;57554;51.546;6.776;2023-07-09T09:34:56;39.60;30.40
70184;DHT22;57554;51.546;6.776;2023-07-09T09:37:32;39.80;28.90
70184;DHT22;57554;51.546;6.776;2023-07-09T09:40:01;40.20;29.30
70184;DHT22;57554;51.546;6.776;2023-07-09T09:42:28;40.50;29.20
70184;DHT22;57554;51.546;6.776;2023-07-09T09:44:54;40.70;28.30
70184;DHT22;57554;51.546;6.776;2023-07-09T09:47:21;40.70;28.20
70184;DHT22;57554;51.546;6.776;2023-07-09T09:49:46;40.70;28.10
70184;DHT22;57554;51.546;6.776;2023-07-09T09:52:18;40.60;27.50
70184;DHT22;57554;51.546;6.776;2023-07-09T09:55:10;40.50;27.30
70184;DHT22;57554;51.546;6.776;2023-07-09T09:57:37;40.40;28.30
70184;DHT22;57554;51.546;6.776;2023-07-09T10:00:03;40.50;28.30
70184;DHT22;57554;51.546;6.776;2023-07-09T10:02:39;40.80;28.00
70184;DHT22;57554;51.546;6.776;2023-07-09T10:05:12;41.20;27.20
70184;DHT22;57554;51.546;6.776;2023-07-09T10:07:43;41.70;27.00
70184;DHT22;57554;51.546;6.776;2023-07-09T10:10:15;42.00;25.70
70184;DHT22;57554;51.546;6.776;2023-07-09T10:12:51;42.20;26.20
70184;DHT22;57554;51.546;6.776;2023-07-09T10:15:45;42.40;25.90
70184;DHT22;57554;51.546;6.776;2023-07-09T10:24:04;43.10;25.50
70184;DHT22;57554;51.546;6.776;2023-07-09T10:26:40;43.40;25.40
70184;DHT22;57554;51.546;6.776;2023-07-09T10:29:24;43.80;24.60
70184;DHT22;57554;51.546;6.776;2023-07-09T10:32:17;43.90;24.10
70184;DHT22;57554;51.546;6.776;2023-07-09T10:35:11;44.10;24.10
70184;DHT22;57554;51.546;6.776;2023-07-09T10:40:43;44.20;24.00
70184;DHT22;57554;51.546;6.776;2023-07-09T10:43:45;44.30;23.70
70184;DHT22;57554;51.546;6.776;2023-07-09T10:46:20;44.40;23.10
70184;DHT22;57554;51.546;6.776;2023-07-09T10:48:49;44.20;23.00
70184;DHT22;57554;51.546;6.776;2023-07-09T10:51:29;43.70;22.90
70184;DHT22;57554;51.546;6.776;2023-07-09T10:54:28;43.20;24.20
70184;DHT22;57554;51.546;6.776;2023-07-09T10:57:04;43.20;24.10
70184;DHT22;57554;51.546;6.776;2023-07-09T10:59:36;43.40;23.20
70184;DHT22;57554;51.546;6.776;2023-07-09T11:04:49;43.60;22.60
70184;DHT22;57554;51.546;6.776;2023-07-09T11:07:20;43.60;22.70
70184;DHT22;57554;51.546;6.776;2023-07-09T11:09:48;43.70;22.40
70184;DHT22;57554;51.546;6.776;2023-07-09T11:12:31;43.40;22.10
70184;DHT22;57554;51.546;6.776;2023-07-09T11:17:26;43.40;23.40
70184;DHT22;57554;51.546;6.776;2023-07-09T11:19:58;43.60;23.10
70184;DHT22;57554;51.546;6.776;2023-07-09T11:22:37;43.90;23.10
70184;DHT22;57554;51.546;6.776;2023-07-09T11:25:12;44.20;23.10
70184;DHT22;57554;51.546;6.776;2023-07-09T11:30:26;44.30;22.70
70184;DHT22;57554;51.546;6.776;2023-07-09T11:32:54;44.50;22.70
70184;DHT22;57554;51.546;6.776;2023-07-09T11:35:24;44.70;21.90
70184;DHT22;57554;51.546;6.776;2023-07-09T11:37:51;44.80;21.70
70184;DHT22;57554;51.546;6.776;2023-07-09T11:40:19;44.90;22.00
70184;DHT22;57554;51.546;6.776;2023-07-09T11:42:56;44.90;21.90
70184;DHT22;57554;51.546;6.776;2023-07-09T11:45:28;44.80;22.30
70184;DHT22;57554;51.546;6.776;2023-07-09T11:48:25;44.30;21.90
70184;DHT22;57554;51.546;6.776;2023-07-09T11:50:53;43.90;22.40
70184;DHT22;57554;51.546;6.776;2023-07-09T11:53:34;43.80;22.10
70184;DHT22;57554;51.546;6.776;2023-07-09T11:56:01;43.90;23.10
70184;DHT22;57554;51.546;6.776;2023-07-09T11:58:27;43.90;22.70
70184;DHT22;57554;51.546;6.776;2023-07-09T12:00:57;44.00;22.90
70184;DHT22;57554;51.546;6.776;2023-07-09T12:03:27;44.00;22.40
70184;DHT22;57554;51.546;6.776;2023-07-09T12:05:54;43.70;22.50
70184;DHT22;57554;51.546;6.776;2023-07-09T12:08:35;43.30;23.10
70184;DHT22;57554;51.546;6.776;2023-07-09T12:11:01;43.10;23.60
70184;DHT22;57554;51.546;6.776;2023-07-09T12:13:27;42.90;23.90
70184;DHT22;57554;51.546;6.776;2023-07-09T12:15:52;42.80;23.70
70184;DHT22;57554;51.546;6.776;2023-07-09T12:18:18;42.60;24.40
70184;DHT22;57554;51.546;6.776;2023-07-09T12:20:53;42.30;24.40
70184;DHT22;57554;51.546;6.776;2023-07-09T12:23:29;42.10;24.50
70184;DHT22;57554;51.546;6.776;2023-07-09T12:25:55;42.00;24.40
70184;DHT22;57554;51.546;6.776;2023-07-09T12:28:26;42.10;24.60
70184;DHT22;57554;51.546;6.776;2023-07-09T12:30:52;42.20;24.50
70184;DHT22;57554;51.546;6.776;2023-07-09T12:33:21;42.20;25.00
70184;DHT22;57554;51.546;6.776;2023-07-09T12:35:47;42.20;24.10
70184;DHT22;57554;51.546;6.776;2023-07-09T12:38:22;42.10;24.30
70184;DHT22;57554;51.546;6.776;2023-07-09T12:40:50;42.10;24.20
70184;DHT22;57554;51.546;6.776;2023-07-09T12:43:39;42.00;23.80
70184;DHT22;57554;51.546;6.776;2023-07-09T12:46:04;41.80;22.90
70184;DHT22;57554;51.546;6.776;2023-07-09T12:48:30;41.20;23.20
70184;DHT22;57554;51.546;6.776;2023-07-09T12:50:57;40.80;24.00
70184;DHT22;57554;51.546;6.776;2023-07-09T12:53:25;40.30;24.50
70184;DHT22;57554;51.546;6.776;2023-07-09T12:55:55;39.90;24.80
70184;DHT22;57554;51.546;6.776;2023-07-09T12:58:31;39.70;24.90
70184;DHT22;57554;51.546;6.776;2023-07-09T13:00:59;39.70;25.40
70184;DHT22;57554;51.546;6.776;2023-07-09T13:03:30;39.60;25.50
70184;DHT22;57554;51.546;6.776;2023-07-09T13:06:03;39.50;25.80
70184;DHT22;57554;51.546;6.776;2023-07-09T13:08:31;39.30;26.50
70184;DHT22;57554;51.546;6.776;2023-07-09T13:10:57;39.10;25.90
70184;DHT22;57554;51.546;6.776;2023-07-09T13:13:25;39.00;27.20
70184;DHT22;57554;51.546;6.776;2023-07-09T13:15:53;39.00;27.00
70184;DHT22;57554;51.546;6.776;2023-07-09T13:18:23;39.00;27.60
70184;DHT22;57554;51.546;6.776;2023-07-09T13:20:50;39.10;27.80
70184;DHT22;57554;51.546;6.776;2023-07-09T13:23:19;39.30;30.70
70184;DHT22;57554;51.546;6.776;2023-07-09T13:25:45;39.50;28.30
70184;DHT22;57554;51.546;6.776;2023-07-09T13:28:28;39.70;26.90
70184;DHT22;57554;51.546;6.776;2023-07-09T13:30:57;39.70;26.60
70184;DHT22;57554;51.546;6.776;2023-07-09T13:33:24;39.80;27.90
70184;DHT22;57554;51.546;6.776;2023-07-09T13:35:50;39.90;28.20
70184;DHT22;57554;51.546;6.776;2023-07-09T13:38:20;40.00;28.30
70184;DHT22;57554;51.546;6.776;2023-07-09T13:40:49;40.00;28.90
70184;DHT22;57554;51.546;6.776;2023-07-09T13:43:29;40.10;29.70
70184;DHT22;57554;51.546;6.776;2023-07-09T13:45:55;40.20;30.30
70184;DHT22;57554;51.546;6.776;2023-07-09T13:48:22;40.10;29.90
70184;DHT22;57554;51.546;6.776;2023-07-09T13:50:50;40.10;30.20
70184;DHT22;57554;51.546;6.776;2023-07-09T13:53:19;40.00;31.10
70184;DHT22;57554;51.546;6.776;2023-07-09T13:55:45;39.90;30.60
70184;DHT22;57554;51.546;6.776;2023-07-09T13:58:13;39.80;29.40
70184;DHT22;57554;51.546;6.776;2023-07-09T14:00:41;39.60;28.60
70184;DHT22;57554;51.546;6.776;2023-07-09T14:03:21;39.20;29.60
70184;DHT22;57554;51.546;6.776;2023-07-09T14:05:48;38.40;31.90
70184;DHT22;57554;51.546;6.776;2023-07-09T14:08:14;37.30;33.90
70184;DHT22;57554;51.546;6.776;2023-07-09T14:10:40;35.80;34.90
70184;DHT22;57554;51.546;6.776;2023-07-09T14:13:12;34.30;37.30
70184;DHT22;57554;51.546;6.776;2023-07-09T14:15:39;33.00;39.00
70184;DHT22;57554;51.546;6.776;2023-07-09T14:18:08;31.70;40.50
70184;DHT22;57554;51.546;6.776;2023-07-09T14:20:34;31.00;44.50
70184;DHT22;57554;51.546;6.776;2023-07-09T14:23:00;30.60;46.40
70184;DHT22;57554;51.546;6.776;2023-07-09T14:25:26;30.40;47.90
70184;DHT22;57554;51.546;6.776;2023-07-09T14:27:53;30.30;49.20
70184;DHT22;57554;51.546;6.776;2023-07-09T14:30:22;30.30;48.40
70184;DHT22;57554;51.546;6.776;2023-07-09T14:32:48;30.40;49.60
70184;DHT22;57554;51.546;6.776;2023-07-09T14:37:43;30.50;50.40
70184;DHT22;57554;51.546;6.776;2023-07-09T14:40:09;30.50;50.30
70184;DHT22;57554;51.546;6.776;2023-07-09T14:42:36;30.50;50.30
70184;DHT22;57554;51.546;6.776;2023-07-09T14:45:03;30.50;50.40
70184;DHT22;57554;51.546;6.776;2023-07-09T14:47:29;30.40;48.20
70184;DHT22;57554;51.546;6.776;2023-07-09T14:49:54;30.20;47.90
70184;DHT22;57554;51.546;6.776;2023-07-09T14:52:21;30.10;48.20
70184;DHT22;57554;51.546;6.776;2023-07-09T14:54:47;29.80;46.90
70184;DHT22;57554;51.546;6.776;2023-07-09T14:57:24;29.20;46.40
70184;DHT22;57554;51.546;6.776;2023-07-09T14:59:51;28.70;49.90
70184;DHT22;57554;51.546;6.776;2023-07-09T15:02:23;28.10;53.40
70184;DHT22;57554;51.546;6.776;2023-07-09T15:04:50;27.50;56.00
70184;DHT22;57554;51.546;6.776;2023-07-09T15:07:15;27.20;57.40
70184;DHT22;57554;51.546;6.776;2023-07-09T15:09:41;27.00;59.10
70184;DHT22;57554;51.546;6.776;2023-07-09T15:12:19;27.00;58.80
70184;DHT22;57554;51.546;6.776;2023-07-09T15:14:48;26.90;59.60
70184;DHT22;57554;51.546;6.776;2023-07-09T15:17:14;26.80;60.00
70184;DHT22;57554;51.546;6.776;2023-07-09T15:19:40;26.80;60.40
70184;DHT22;57554;51.546;6.776;2023-07-09T15:22:17;26.70;59.80
70184;DHT22;57554;51.546;6.776;2023-07-09T15:24:44;26.50;60.00
70184;DHT22;57554;51.546;6.776;2023-07-09T15:27:11;26.10;61.10
70184;DHT22;57554;51.546;6.776;2023-07-09T15:29:36;25.70;62.10
70184;DHT22;57554;51.546;6.776;2023-07-09T15:32:02;25.50;63.10
70184;DHT22;57554;51.546;6.776;2023-07-09T15:34:27;25.30;64.00
70184;DHT22;57554;51.546;6.776;2023-07-09T15:36:53;25.30;64.80
70184;DHT22;57554;51.546;6.776;2023-07-09T15:39:20;25.30;65.40
70184;DHT22;57554;51.546;6.776;2023-07-09T15:41:46;25.30;65.70
70184;DHT22;57554;51.546;6.776;2023-07-09T15:44:13;25.40;65.90
70184;DHT22;57554;51.546;6.776;2023-07-09T15:46:50;25.50;66.00
70184;DHT22;57554;51.546;6.776;2023-07-09T15:49:16;25.60;66.10
70184;DHT22;57554;51.546;6.776;2023-07-09T15:51:41;25.70;65.80
70184;DHT22;57554;51.546;6.776;2023-07-09T15:54:19;25.80;65.90
70184;DHT22;57554;51.546;6.776;2023-07-09T15:56:46;26.00;65.90
70184;DHT22;57554;51.546;6.776;2023-07-09T15:59:28;26.10;65.50
70184;DHT22;57554;51.546;6.776;2023-07-09T16:01:54;26.20;65.30
70184;DHT22;57554;51.546;6.776;2023-07-09T16:04:20;26.20;65.10